Time,TemperatureF,DewpointF,PressureIn,WindDirection,WindDirectionDegrees,WindSpeedMPH,WindSpeedGustMPH,Humidity,HourlyPrecipIn,Conditions,Clouds,dailyrainin,SolarRadiationWatts/m^2,SoftwareType,DateUTC
2013-10-17 00:02:00,27.0,26.0,-100.00,NNW,337,2.0,3.0,97,0.00,,,0.01,0.000000,,2013-10-17 06:02:00,
2013-10-17 00:13:00,27.0,26.0,-100.00,NNW,337,2.0,3.0,97,0.00,,,0.01,0.000000,,2013-10-17 06:13:00,
2013-10-17 00:42:00,28.0,28.0,-100.00,NNW,348,1.0,2.0,98,0.00,,,0.01,0.000000,,2013-10-17 06:42:00,
2013-10-17 00:52:00,28.0,28.0,-100.00,NNW,348,1.0,2.0,98,0.00,,,0.01,0.000000,,2013-10-17 06:52:00,
2013-10-17 01:02:00,28.0,28.0,-100.00,NNW,348,1.0,2.0,98,0.00,,,0.01,0.000000,,2013-10-17 07:02:00,
2013-10-17 01:11:00,28.0,28.0,-100.00,NNW,348,1.0,2.0,98,0.00,,,0.01,0.000000,,2013-10-17 07:11:00,
2013-10-17 01:43:00,29.0,29.0,-100.00,NNW,340,1.0,2.0,98,0.00,,,0.01,0.000000,,2013-10-17 07:43:00,
2013-10-17 01:52:00,29.0,29.0,-100.00,NNW,340,1.0,2.0,98,0.00,,,0.01,0.000000,,2013-10-17 07:52:00,
2013-10-17 02:02:00,29.0,29.0,-100.00,NNW,340,1.0,2.0,98,0.00,,,0.01,0.000000,,2013-10-17 08:02:00,
2013-10-17 02:11:00,29.0,29.0,-100.00,NNW,340,1.0,2.0,98,0.00,,,0.01,0.000000,,2013-10-17 08:11:00,
2013-10-17 02:42:00,28.0,27.0,-100.00,NNW,342,1.0,3.0,97,0.00,,,0.01,0.000000,,2013-10-17 08:42:00,
2013-10-17 02:52:00,28.0,27.0,-100.00,NNW,342,1.0,3.0,97,0.00,,,0.01,0.000000,,2013-10-17 08:52:00,
2013-10-17 03:02:00,28.0,27.0,-100.00,NNW,342,1.0,3.0,97,0.00,,,0.01,0.000000,,2013-10-17 09:02:00,
2013-10-17 03:11:00,28.0,27.0,-100.00,NNW,342,1.0,3.0,97,0.00,,,0.01,0.000000,,2013-10-17 09:11:00,
2013-10-17 03:43:00,28.0,27.0,-100.00,NNW,329,2.0,2.0,97,0.00,,,0.01,0.000000,,2013-10-17 09:43:00,
2013-10-17 03:53:00,28.0,27.0,-100.00,NNW,329,2.0,2.0,97,0.00,,,0.01,0.000000,,2013-10-17 09:53:00,
2013-10-17 04:03:00,28.0,27.0,-100.00,NNW,329,2.0,2.0,97,0.00,,,0.01,0.000000,,2013-10-17 10:03:00,
2013-10-17 04:12:00,28.0,27.0,-100.00,NNW,329,2.0,2.0,97,0.00,,,0.01,0.000000,,2013-10-17 10:12:00,
2013-10-17 04:42:00,26.0,25.0,-100.00,North,353,1.0,3.0,97,0.00,,,0.01,0.000000,,2013-10-17 10:42:00,
2013-10-17 04:53:00,26.0,25.0,-100.00,North,353,1.0,3.0,97,0.00,,,0.01,0.000000,,2013-10-17 10:53:00,
2013-10-17 05:02:00,26.0,25.0,-100.00,North,353,1.0,3.0,97,0.00,,,0.01,0.000000,,2013-10-17 11:02:00,
2013-10-17 05:11:00,26.0,25.0,-100.00,North,353,1.0,3.0,97,0.00,,,0.01,0.000000,,2013-10-17 11:11:00,
2013-10-17 05:42:00,26.0,25.0,-100.00,NNW,347,1.0,3.0,97,0.00,,,0.01,0.000000,,2013-10-17 11:42:00,
2013-10-17 05:52:00,26.0,25.0,-100.00,NNW,347,1.0,3.0,97,0.00,,,0.01,0.000000,,2013-10-17 11:52:00,
2013-10-17 06:02:00,26.0,25.0,-100.00,NNW,347,1.0,3.0,97,0.00,,,0.01,0.000000,,2013-10-17 12:02:00,
2013-10-17 06:12:00,26.0,25.0,-100.00,NNW,347,1.0,3.0,97,0.00,,,0.01,0.000000,,2013-10-17 12:12:00,
2013-10-17 06:42:00,27.0,26.0,-100.00,North,353,1.0,2.0,97,0.00,,,-99.99,0.000000,,2013-10-17 12:42:00,
2013-10-17 06:52:00,27.0,26.0,-100.00,North,353,1.0,2.0,97,0.00,,,-99.99,0.000000,,2013-10-17 12:52:00,
2013-10-17 07:02:00,27.0,26.0,-100.00,North,353,1.0,2.0,97,0.00,,,-99.99,0.000000,,2013-10-17 13:02:00,
2013-10-17 07:11:00,27.0,26.0,-100.00,North,353,1.0,2.0,97,0.00,,,-99.99,0.000000,,2013-10-17 13:11:00,
2013-10-17 07:42:00,28.0,27.0,-100.00,North,10,2.0,3.0,97,0.00,,,0.01,0.000000,,2013-10-17 13:42:00,
2013-10-17 07:52:00,28.0,27.0,-100.00,North,10,2.0,3.0,97,0.00,,,0.01,0.000000,,2013-10-17 13:52:00,
2013-10-17 08:02:00,28.0,27.0,-100.00,North,10,2.0,3.0,97,0.00,,,0.01,0.000000,,2013-10-17 14:02:00,
2013-10-17 08:11:00,28.0,27.0,-100.00,North,10,2.0,3.0,97,0.00,,,0.01,0.000000,,2013-10-17 14:11:00,
2013-10-17 08:42:00,30.0,29.0,-100.00,NNW,341,2.0,4.0,98,0.00,,,0.01,1.000000,,2013-10-17 14:42:00,
2013-10-17 08:52:00,30.0,29.0,-100.00,NNW,341,2.0,4.0,98,0.00,,,0.01,1.000000,,2013-10-17 14:52:00,
2013-10-17 09:02:00,30.0,29.0,-100.00,NNW,341,2.0,4.0,98,0.00,,,0.01,1.000000,,2013-10-17 15:02:00,
2013-10-17 09:11:00,30.0,29.0,-100.00,NNW,341,2.0,4.0,98,0.00,,,0.01,1.000000,,2013-10-17 15:11:00,
2013-10-17 09:43:00,31.0,31.0,-100.00,NNE,29,2.0,3.0,98,0.00,,,0.01,18.000000,,2013-10-17 15:43:00,
2013-10-17 09:53:00,31.0,31.0,-100.00,NNE,29,2.0,3.0,98,0.00,,,0.01,18.000000,,2013-10-17 15:53:00,
2013-10-17 10:03:00,31.0,31.0,-100.00,NNE,29,2.0,3.0,98,0.00,,,0.01,18.000000,,2013-10-17 16:03:00,
2013-10-17 10:12:00,31.0,31.0,-100.00,NNE,29,2.0,3.0,98,0.00,,,0.01,18.000000,,2013-10-17 16:12:00,
2013-10-17 10:42:00,38.0,37.0,-100.00,NW,323,2.0,3.0,97,0.00,,,0.00,167.000000,,2013-10-17 16:42:00,
2013-10-17 10:53:00,38.0,37.0,-100.00,NW,323,2.0,3.0,97,0.00,,,0.00,167.000000,,2013-10-17 16:53:00,
2013-10-17 11:02:00,38.0,37.0,-100.00,NW,323,2.0,3.0,97,0.00,,,0.00,167.000000,,2013-10-17 17:02:00,
2013-10-17 11:12:00,38.0,37.0,-100.00,NW,323,2.0,3.0,97,0.00,,,0.00,167.000000,,2013-10-17 17:12:00,
2013-10-17 11:42:00,44.0,38.0,-100.00,South,169,3.0,5.0,78,0.00,,,0.00,410.000000,,2013-10-17 17:42:00,
2013-10-17 11:53:00,44.0,38.0,-100.00,South,169,3.0,5.0,78,0.00,,,0.00,410.000000,,2013-10-17 17:53:00,
2013-10-17 12:02:00,44.0,38.0,-100.00,South,169,3.0,5.0,78,0.00,,,0.00,410.000000,,2013-10-17 18:02:00,
2013-10-17 12:11:00,44.0,38.0,-100.00,South,169,3.0,5.0,78,0.00,,,0.00,410.000000,,2013-10-17 18:11:00,
2013-10-17 12:52:00,45.0,35.0,-100.00,SSW,204,4.0,7.0,69,0.00,,,0.00,310.000000,,2013-10-17 18:52:00,
2013-10-17 13:01:00,45.0,35.0,-100.00,SSW,204,4.0,7.0,69,0.00,,,0.00,310.000000,,2013-10-17 19:01:00,
2013-10-17 13:11:00,45.0,35.0,-100.00,SSW,204,4.0,7.0,69,0.00,,,0.00,310.000000,,2013-10-17 19:11:00,
2013-10-17 13:42:00,46.0,34.0,-100.00,SSE,160,4.0,7.0,62,0.00,,,0.00,483.000000,,2013-10-17 19:42:00,
2013-10-17 13:53:00,46.0,34.0,-100.00,SSE,160,4.0,7.0,62,0.00,,,0.00,483.000000,,2013-10-17 19:53:00,
2013-10-17 14:02:00,46.0,34.0,-100.00,SSE,160,4.0,7.0,62,0.00,,,0.00,483.000000,,2013-10-17 20:02:00,
2013-10-17 14:11:00,46.0,34.0,-100.00,SSE,160,4.0,7.0,62,0.00,,,0.00,483.000000,,2013-10-17 20:11:00,
2013-10-17 14:42:00,48.0,36.0,-100.00,SSW,193,3.0,5.0,64,0.00,,,0.00,243.000000,,2013-10-17 20:42:00,
2013-10-17 14:52:00,48.0,36.0,-100.00,SSW,193,3.0,5.0,64,0.00,,,0.00,243.000000,,2013-10-17 20:52:00,
2013-10-17 15:02:00,48.0,36.0,-100.00,SSW,193,3.0,5.0,64,0.00,,,0.00,243.000000,,2013-10-17 21:02:00,
2013-10-17 15:11:00,48.0,36.0,-100.00,SSW,193,3.0,5.0,64,0.00,,,0.00,243.000000,,2013-10-17 21:11:00,
2013-10-17 15:44:00,48.0,34.0,-100.00,SW,230,2.0,7.0,57,0.00,,,0.00,266.000000,,2013-10-17 21:44:00,
2013-10-17 15:54:00,48.0,34.0,-100.00,SW,230,2.0,7.0,57,0.00,,,0.00,266.000000,,2013-10-17 21:54:00,
2013-10-17 16:04:00,48.0,34.0,-100.00,SW,230,2.0,7.0,57,0.00,,,0.00,266.000000,,2013-10-17 22:04:00,
2013-10-17 16:13:00,48.0,34.0,-100.00,SW,230,2.0,7.0,57,0.00,,,0.00,266.000000,,2013-10-17 22:13:00,
2013-10-17 16:43:00,49.0,31.0,-100.00,NW,308,1.0,5.0,49,0.00,,,0.00,185.000000,,2013-10-17 22:43:00,
2013-10-17 16:53:00,49.0,31.0,-100.00,NW,308,1.0,5.0,49,0.00,,,0.00,185.000000,,2013-10-17 22:53:00,
2013-10-17 17:03:00,49.0,31.0,-100.00,NW,308,1.0,5.0,49,0.00,,,0.00,185.000000,,2013-10-17 23:03:00,
2013-10-17 17:13:00,49.0,31.0,-100.00,NW,308,1.0,5.0,49,0.00,,,0.00,185.000000,,2013-10-17 23:13:00,
2013-10-17 17:43:00,50.0,30.0,-100.00,NNW,346,1.0,4.0,46,0.00,,,0.00,168.000000,,2013-10-17 23:43:00,
2013-10-17 17:53:00,50.0,30.0,-100.00,NNW,346,1.0,4.0,46,0.00,,,0.00,168.000000,,2013-10-17 23:53:00,
2013-10-17 18:02:00,50.0,30.0,-100.00,NNW,346,1.0,4.0,46,0.00,,,0.00,168.000000,,2013-10-18 00:02:00,
2013-10-17 18:12:00,50.0,30.0,-100.00,NNW,346,1.0,4.0,46,0.00,,,0.00,168.000000,,2013-10-18 00:12:00,
2013-10-17 18:42:00,49.0,27.0,-100.00,WNW,291,3.0,9.0,43,0.00,,,0.00,130.000000,,2013-10-18 00:42:00,
2013-10-17 18:53:00,49.0,27.0,-100.00,WNW,291,3.0,9.0,43,0.00,,,0.00,130.000000,,2013-10-18 00:53:00,
2013-10-17 19:02:00,49.0,27.0,-100.00,WNW,291,3.0,9.0,43,0.00,,,0.00,130.000000,,2013-10-18 01:02:00,
2013-10-17 19:12:00,49.0,27.0,-100.00,WNW,291,3.0,9.0,43,0.00,,,0.00,130.000000,,2013-10-18 01:12:00,
2013-10-17 19:52:00,36.0,27.0,-100.00,NW,323,0.0,5.0,70,0.00,,,0.00,10.000000,,2013-10-18 01:52:00,
2013-10-17 20:02:00,36.0,27.0,-100.00,NW,323,0.0,5.0,70,0.00,,,0.00,10.000000,,2013-10-18 02:02:00,
2013-10-17 20:11:00,36.0,27.0,-100.00,NW,323,0.0,5.0,70,0.00,,,0.00,10.000000,,2013-10-18 02:11:00,
2013-10-17 21:11:00,29.0,26.0,-100.00,NNW,327,1.0,3.0,88,0.00,,,0.00,0.000000,,2013-10-18 03:11:00,
2013-10-17 22:14:00,26.0,24.0,-100.00,NNW,338,2.0,3.0,93,-99.99,,,0.00,0.000000,,2013-10-18 04:14:00,
2013-10-17 22:53:00,25.0,24.0,-100.00,NNW,337,0.0,3.0,95,-99.99,,,0.00,0.000000,,2013-10-18 04:53:00,
2013-10-17 23:03:00,25.0,24.0,-100.00,NNW,337,0.0,3.0,95,-99.99,,,0.00,0.000000,,2013-10-18 05:03:00,
2013-10-17 23:12:00,25.0,24.0,-100.00,NNW,337,0.0,3.0,95,-99.99,,,0.00,0.000000,,2013-10-18 05:12:00,
2013-10-17 23:43:00,25.0,24.0,-100.00,NNW,341,2.0,2.0,96,-99.99,,,0.00,0.000000,,2013-10-18 05:43:00,
2013-10-17 23:52:00,25.0,24.0,-100.00,NNW,341,2.0,2.0,96,-99.99,,,0.00,0.000000,,2013-10-18 05:52:00,